RJCK

Kushiro Airport

Kushiro, Japan
TAF RJCK 241710Z 2418/2600 27009KT 9999 FEW006 SCT030 TEMPO 2418/2420 0700 FG VV001 TEMPO 2420/2423 3000 BR FEW003 BKN006 BECMG 2503/2505 21009KT BECMG 2509/2512 01006KT
Issued Valid From Valid To
Sep-24 @ 17:10 UTC
(2 hours ago)
Sep-24 @ 18:00 UTC
(an hour ago)
Sep-26 @ 00:00 UTC
(-1 days ago)
Sep-24 @ 18:00 to Sep-25 @ 03:00
TAF RJCK 241710Z 2418/2600 27009KT 9999 FEW006 SCT030
Wind Visibility Clouds
270° at 9 knots 10,000+ meters
  • Few at 600' AGL
  • Scattered at 3,000' AGL
Temporary Sep-24 @ 18:00 to Sep-24 @ 20:00
TEMPO 2418/2420 0700 FG VV001
Visibility Clouds Conditions
692 meters
  • Vertical visibility at 100' AGL
  • Fog
Temporary Sep-24 @ 20:00 to Sep-24 @ 23:00
TEMPO 2420/2423 3000 BR FEW003 BKN006
Visibility Clouds Conditions
2,993 meters
  • Few at 300' AGL
  • Broken at 600' AGL
  • Mist
Becoming Sep-25 @ 03:00 to Sep-25 @ 09:00
BECMG 2503/2505 21009KT
Wind Visibility Clouds
210° at 9 knots 10,000+ meters
  • Few at 600' AGL
  • Scattered at 3,000' AGL
Becoming Sep-25 @ 09:00 to Sep-26 @ 00:00
BECMG 2509/2512 01006KT
Wind Visibility Clouds
10° at 6 knots 10,000+ meters
  • Few at 600' AGL
  • Scattered at 3,000' AGL
TAF RJCK 241710Z 2418/2600 27009KT 9999 FEW006 SCT030 TEMPO 2418/2420 0700 FG VV001 TEMPO 2420/2423 3000 BR FEW003 BKN006 BECMG 2503/2505 21009KT BECMG 2509/2512 01006KT
Issued Sep-24 @ 17:10 UTC
(2 hours ago)
Valid From Sep-24 @ 18:00 UTC
(an hour ago)
Valid To Sep-26 @ 00:00 UTC
(-1 days ago)
Sep-24 @ 18:00 - Sep-25 @ 03:00
Wind Visibility
270° at 9 knots 10,000+ meters
Clouds
  • Few at 600' AGL
  • Scattered at 3,000' AGL
Temporary Sep-24 @ 18:00 - Sep-24 @ 20:00
Clouds
  • Vertical visibility at 100' AGL
Conditions
  • Fog
Temporary Sep-24 @ 20:00 - Sep-24 @ 23:00
Clouds
  • Few at 300' AGL
  • Broken at 600' AGL
Conditions
  • Mist
Becoming Sep-25 @ 03:00 - Sep-25 @ 09:00
Wind Visibility
210° at 9 knots 10,000+ meters
Clouds
  • Few at 600' AGL
  • Scattered at 3,000' AGL
Becoming Sep-25 @ 09:00 - Sep-26 @ 00:00
Wind Visibility
10° at 6 knots 10,000+ meters
Clouds
  • Few at 600' AGL
  • Scattered at 3,000' AGL